Terminal Aerodrome Forecast
Issued by NWS Cleveland, OH

Home | Current Version | Previous Version | Graphics & Text | Print | Product List | Glossary On
Versions: 1 2 3 4 5 6 7 8 9 10 11 12 13 14 15 16 17 18 19 20 21 22 23 24 25 26
990
FTUS41 KCLE 011456 AAB
TAFCLE
TAF AMD
KCLE 011456Z 0115/0218 32005KT 5SM BR OVC004
      TEMPO 0115/0117 6SM BR OVC008
     FM011800 36007KT 5SM HZ OVC008
      TEMPO 0120/0124 6SM BR OVC012
     FM020200 03004KT 2SM -RA BR OVC006
     FM020600 06004KT 1SM -RA BR OVC004=

USA.gov is the U.S. government's official web portal to all federal, state and local government web resources and services.